sensor_id;sensor_type;location;lat;lon;timestamp;pressure;altitude;pressure_sealevel;temperature;humidity
38530;BME280;24301;54.332;48.386;2022-11-15T00:02:13;98310.78;;;-5.18;66.06
38530;BME280;24301;54.332;48.386;2022-11-15T00:04:57;98310.84;;;-5.16;65.47
38530;BME280;24301;54.332;48.386;2022-11-15T00:07:41;98312.44;;;-5.19;65.34
38530;BME280;24301;54.332;48.386;2022-11-15T00:10:26;98311.59;;;-5.19;65.86
38530;BME280;24301;54.332;48.386;2022-11-15T00:13:11;98322.78;;;-5.17;65.40
38530;BME280;24301;54.332;48.386;2022-11-15T00:15:57;98315.16;;;-5.15;66.23
38530;BME280;24301;54.332;48.386;2022-11-15T00:18:42;98312.63;;;-5.14;65.64
38530;BME280;24301;54.332;48.386;2022-11-15T00:21:26;98318.66;;;-5.13;65.22
38530;BME280;24301;54.332;48.386;2022-11-15T00:24:11;98322.84;;;-5.15;65.04
38530;BME280;24301;54.332;48.386;2022-11-15T00:26:55;98317.75;;;-5.14;65.94
38530;BME280;24301;54.332;48.386;2022-11-15T00:29:39;98319.59;;;-5.11;65.76
38530;BME280;24301;54.332;48.386;2022-11-15T00:32:33;98305.00;;;-5.12;65.34
38530;BME280;24301;54.332;48.386;2022-11-15T00:35:18;98319.50;;;-5.13;66.62
38530;BME280;24301;54.332;48.386;2022-11-15T00:38:02;98312.59;;;-5.15;65.66
38530;BME280;24301;54.332;48.386;2022-11-15T00:40:47;98324.59;;;-5.14;66.36
38530;BME280;24301;54.332;48.386;2022-11-15T00:43:31;98332.91;;;-5.20;65.80
38530;BME280;24301;54.332;48.386;2022-11-15T00:46:16;98329.31;;;-5.25;66.22
38530;BME280;24301;54.332;48.386;2022-11-15T00:49:00;98325.75;;;-5.29;66.21
38530;BME280;24301;54.332;48.386;2022-11-15T00:51:45;98326.44;;;-5.33;66.18
38530;BME280;24301;54.332;48.386;2022-11-15T00:54:29;98325.53;;;-5.35;66.42
38530;BME280;24301;54.332;48.386;2022-11-15T00:57:13;98326.38;;;-5.35;66.71
38530;BME280;24301;54.332;48.386;2022-11-15T00:59:58;98318.56;;;-5.38;66.60
38530;BME280;24301;54.332;48.386;2022-11-15T01:02:42;98320.97;;;-5.42;65.85
38530;BME280;24301;54.332;48.386;2022-11-15T01:05:27;98321.63;;;-5.48;65.73
38530;BME280;24301;54.332;48.386;2022-11-15T01:08:15;98324.22;;;-5.46;65.97
38530;BME280;24301;54.332;48.386;2022-11-15T01:11:08;98318.34;;;-5.44;66.26
38530;BME280;24301;54.332;48.386;2022-11-15T01:13:54;98305.34;;;-5.49;65.76
38530;BME280;24301;54.332;48.386;2022-11-15T01:16:39;98318.22;;;-5.47;66.20
38530;BME280;24301;54.332;48.386;2022-11-15T01:19:23;98311.47;;;-5.45;66.35
38530;BME280;24301;54.332;48.386;2022-11-15T01:22:07;98312.28;;;-5.46;66.17
38530;BME280;24301;54.332;48.386;2022-11-15T01:24:52;98312.22;;;-5.48;65.47
38530;BME280;24301;54.332;48.386;2022-11-15T01:27:36;98320.03;;;-5.44;65.81
38530;BME280;24301;54.332;48.386;2022-11-15T01:30:20;98319.09;;;-5.46;65.10
38530;BME280;24301;54.332;48.386;2022-11-15T01:33:05;98321.78;;;-5.43;65.53
38530;BME280;24301;54.332;48.386;2022-11-15T01:35:49;98322.03;;;-5.37;66.30
38530;BME280;24301;54.332;48.386;2022-11-15T01:38:34;98322.25;;;-5.31;65.35
38530;BME280;24301;54.332;48.386;2022-11-15T01:41:21;98328.94;;;-5.35;64.41
38530;BME280;24301;54.332;48.386;2022-11-15T01:47:21;98327.97;;;-5.38;63.64
38530;BME280;24301;54.332;48.386;2022-11-15T01:50:13;98328.78;;;-5.39;62.69
38530;BME280;24301;54.332;48.386;2022-11-15T01:52:59;98342.53;;;-5.37;63.97
38530;BME280;24301;54.332;48.386;2022-11-15T01:55:43;98330.16;;;-5.48;62.24
38530;BME280;24301;54.332;48.386;2022-11-15T01:58:28;98334.59;;;-5.43;61.99
38530;BME280;24301;54.332;48.386;2022-11-15T02:01:13;98338.09;;;-5.41;62.36
38530;BME280;24301;54.332;48.386;2022-11-15T02:04:21;98329.41;;;-5.45;61.95
38530;BME280;24301;54.332;48.386;2022-11-15T02:07:05;98332.97;;;-5.41;62.27
38530;BME280;24301;54.332;48.386;2022-11-15T02:09:51;98342.47;;;-5.39;62.21
38530;BME280;24301;54.332;48.386;2022-11-15T02:12:38;98334.59;;;-5.43;60.63
38530;BME280;24301;54.332;48.386;2022-11-15T02:15:28;98349.28;;;-5.39;60.60
38530;BME280;24301;54.332;48.386;2022-11-15T02:18:22;98328.09;;;-5.35;60.77
38530;BME280;24301;54.332;48.386;2022-11-15T02:21:30;98339.25;;;-5.33;61.52
38530;BME280;24301;54.332;48.386;2022-11-15T02:37:07;98352.19;;;-5.30;62.16
38530;BME280;24301;54.332;48.386;2022-11-15T02:42:57;98354.06;;;-5.26;61.76
38530;BME280;24301;54.332;48.386;2022-11-15T02:46:08;98362.69;;;-5.24;62.29
38530;BME280;24301;54.332;48.386;2022-11-15T02:48:55;98365.00;;;-5.30;61.52
38530;BME280;24301;54.332;48.386;2022-11-15T02:51:39;98368.69;;;-5.23;59.63
38530;BME280;24301;54.332;48.386;2022-11-15T02:54:28;98382.31;;;-5.24;62.63
38530;BME280;24301;54.332;48.386;2022-11-15T02:57:16;98367.91;;;-5.21;62.78
38530;BME280;24301;54.332;48.386;2022-11-15T03:00:09;98372.19;;;-5.21;62.03
38530;BME280;24301;54.332;48.386;2022-11-15T03:03:21;98362.78;;;-5.21;60.33
38530;BME280;24301;54.332;48.386;2022-11-15T03:09:08;98382.84;;;-5.33;61.24
38530;BME280;24301;54.332;48.386;2022-11-15T03:12:07;98387.97;;;-5.33;61.15
38530;BME280;24301;54.332;48.386;2022-11-15T03:15:00;98376.06;;;-5.31;60.59
38530;BME280;24301;54.332;48.386;2022-11-15T03:17:56;98385.59;;;-5.28;61.07
38530;BME280;24301;54.332;48.386;2022-11-15T03:20:44;98380.47;;;-5.28;61.29
38530;BME280;24301;54.332;48.386;2022-11-15T03:23:30;98391.00;;;-5.21;62.07
38530;BME280;24301;54.332;48.386;2022-11-15T03:26:16;98381.66;;;-5.19;61.87
38530;BME280;24301;54.332;48.386;2022-11-15T03:29:08;98387.81;;;-5.15;61.66
38530;BME280;24301;54.332;48.386;2022-11-15T03:31:59;98397.31;;;-5.12;61.10
38530;BME280;24301;54.332;48.386;2022-11-15T03:34:50;98385.31;;;-5.13;60.43
38530;BME280;24301;54.332;48.386;2022-11-15T03:40:39;98397.31;;;-5.12;60.93
38530;BME280;24301;54.332;48.386;2022-11-15T03:43:34;98406.03;;;-5.07;61.28
38530;BME280;24301;54.332;48.386;2022-11-15T03:46:25;98411.41;;;-5.01;61.48
38530;BME280;24301;54.332;48.386;2022-11-15T03:49:16;98401.03;;;-5.04;61.68
38530;BME280;24301;54.332;48.386;2022-11-15T03:52:03;98413.03;;;-5.03;61.61
38530;BME280;24301;54.332;48.386;2022-11-15T03:54:54;98426.78;;;-5.01;62.34
38530;BME280;24301;54.332;48.386;2022-11-15T03:57:39;98413.03;;;-5.03;61.66
38530;BME280;24301;54.332;48.386;2022-11-15T04:00:23;98420.84;;;-5.00;62.18
38530;BME280;24301;54.332;48.386;2022-11-15T04:03:08;98432.34;;;-4.90;62.47
38530;BME280;24301;54.332;48.386;2022-11-15T04:05:52;98420.63;;;-4.83;62.50
38530;BME280;24301;54.332;48.386;2022-11-15T04:08:36;98431.22;;;-4.74;62.98
38530;BME280;24301;54.332;48.386;2022-11-15T04:11:21;98439.13;;;-4.68;62.89
38530;BME280;24301;54.332;48.386;2022-11-15T04:14:05;98440.84;;;-4.68;62.14
38530;BME280;24301;54.332;48.386;2022-11-15T04:16:49;98445.97;;;-4.68;61.56
38530;BME280;24301;54.332;48.386;2022-11-15T04:19:33;98440.22;;;-4.63;62.06
38530;BME280;24301;54.332;48.386;2022-11-15T04:22:37;98436.75;;;-4.63;61.92
38530;BME280;24301;54.332;48.386;2022-11-15T04:25:41;98435.09;;;-4.63;61.72
38530;BME280;24301;54.332;48.386;2022-11-15T04:28:25;98431.63;;;-4.63;62.38
38530;BME280;24301;54.332;48.386;2022-11-15T04:31:09;98446.97;;;-4.65;61.54
38530;BME280;24301;54.332;48.386;2022-11-15T04:33:54;98446.28;;;-4.60;62.21
38530;BME280;24301;54.332;48.386;2022-11-15T04:36:38;98450.81;;;-4.53;62.49
38530;BME280;24301;54.332;48.386;2022-11-15T04:39:42;98459.44;;;-4.51;62.30
38530;BME280;24301;54.332;48.386;2022-11-15T04:42:28;98445.03;;;-4.48;61.17
38530;BME280;24301;54.332;48.386;2022-11-15T04:45:13;98452.88;;;-4.43;62.35
38530;BME280;24301;54.332;48.386;2022-11-15T04:47:57;98455.59;;;-4.40;60.88
38530;BME280;24301;54.332;48.386;2022-11-15T04:50:42;98444.63;;;-4.36;62.12
38530;BME280;24301;54.332;48.386;2022-11-15T04:53:26;98436.91;;;-4.36;59.04
38530;BME280;24301;54.332;48.386;2022-11-15T04:56:11;98445.06;;;-4.46;60.59
38530;BME280;24301;54.332;48.386;2022-11-15T04:58:55;98459.81;;;-4.42;61.42
38530;BME280;24301;54.332;48.386;2022-11-15T05:01:39;98457.28;;;-4.40;60.49
38530;BME280;24301;54.332;48.386;2022-11-15T05:04:24;98449.03;;;-4.31;61.40
38530;BME280;24301;54.332;48.386;2022-11-15T05:07:08;98464.84;;;-4.21;61.17
38530;BME280;24301;54.332;48.386;2022-11-15T05:09:52;98455.31;;;-4.23;61.13
38530;BME280;24301;54.332;48.386;2022-11-15T05:12:38;98465.69;;;-4.20;62.19
38530;BME280;24301;54.332;48.386;2022-11-15T05:15:23;98473.50;;;-4.17;61.93
38530;BME280;24301;54.332;48.386;2022-11-15T05:18:07;98468.44;;;-4.15;61.65
38530;BME280;24301;54.332;48.386;2022-11-15T05:20:51;98475.97;;;-4.20;61.77
38530;BME280;24301;54.332;48.386;2022-11-15T05:23:35;98475.88;;;-3.99;61.26
38530;BME280;24301;54.332;48.386;2022-11-15T05:26:20;98483.97;;;-3.88;62.56
38530;BME280;24301;54.332;48.386;2022-11-15T05:29:04;98474.06;;;-3.77;59.81
38530;BME280;24301;54.332;48.386;2022-11-15T05:31:48;98488.53;;;-3.79;62.18
38530;BME280;24301;54.332;48.386;2022-11-15T05:34:32;98482.53;;;-3.80;62.33
38530;BME280;24301;54.332;48.386;2022-11-15T05:37:17;98486.63;;;-3.85;62.10
38530;BME280;24301;54.332;48.386;2022-11-15T05:40:02;98475.53;;;-3.84;62.98
38530;BME280;24301;54.332;48.386;2022-11-15T05:42:47;98489.97;;;-3.63;62.26
38530;BME280;24301;54.332;48.386;2022-11-15T05:45:33;98488.91;;;-3.17;62.06
38530;BME280;24301;54.332;48.386;2022-11-15T05:48:19;98477.66;;;-2.93;60.78
38530;BME280;24301;54.332;48.386;2022-11-15T05:51:04;98492.44;;;-2.58;60.25
38530;BME280;24301;54.332;48.386;2022-11-15T05:53:51;98489.56;;;0.54;61.38
38530;BME280;24301;54.332;48.386;2022-11-15T05:56:36;98491.56;;;2.64;57.64
38530;BME280;24301;54.332;48.386;2022-11-15T05:59:20;98481.38;;;2.85;52.93
38530;BME280;24301;54.332;48.386;2022-11-15T06:02:05;98501.28;;;4.27;59.66
38530;BME280;24301;54.332;48.386;2022-11-15T06:04:49;98504.03;;;4.97;58.06
38530;BME280;24301;54.332;48.386;2022-11-15T06:07:34;98501.44;;;5.10;58.57
38530;BME280;24301;54.332;48.386;2022-11-15T06:10:18;98510.00;;;5.94;59.21
38530;BME280;24301;54.332;48.386;2022-11-15T06:13:03;98479.44;;;7.47;45.55
38530;BME280;24301;54.332;48.386;2022-11-15T06:15:47;98468.59;;;8.55;43.53
38530;BME280;24301;54.332;48.386;2022-11-15T06:18:33;98510.38;;;8.65;56.98
38530;BME280;24301;54.332;48.386;2022-11-15T06:21:18;98518.38;;;9.65;58.82
38530;BME280;24301;54.332;48.386;2022-11-15T06:24:02;98519.41;;;9.56;55.83
38530;BME280;24301;54.332;48.386;2022-11-15T06:26:46;98509.03;;;7.53;52.51
38530;BME280;24301;54.332;48.386;2022-11-15T06:29:31;98524.03;;;5.18;53.84
38530;BME280;24301;54.332;48.386;2022-11-15T06:32:15;98519.63;;;4.74;53.02
38530;BME280;24301;54.332;48.386;2022-11-15T06:34:59;98498.81;;;5.17;41.39
38530;BME280;24301;54.332;48.386;2022-11-15T06:37:43;98547.66;;;7.16;58.88
38530;BME280;24301;54.332;48.386;2022-11-15T06:40:28;98534.44;;;8.91;55.14
38530;BME280;24301;54.332;48.386;2022-11-15T06:43:12;98532.91;;;8.78;51.76
38530;BME280;24301;54.332;48.386;2022-11-15T06:46:01;98524.69;;;8.37;50.49
38530;BME280;24301;54.332;48.386;2022-11-15T06:48:45;98533.31;;;8.44;51.08
38530;BME280;24301;54.332;48.386;2022-11-15T06:51:30;98534.78;;;10.25;51.38
38530;BME280;24301;54.332;48.386;2022-11-15T06:54:14;98532.03;;;10.31;48.73
38530;BME280;24301;54.332;48.386;2022-11-15T06:56:59;98540.81;;;11.11;52.07
38530;BME280;24301;54.332;48.386;2022-11-15T06:59:43;98505.94;;;11.40;35.33
38530;BME280;24301;54.332;48.386;2022-11-15T07:02:30;98549.19;;;10.90;50.96
38530;BME280;24301;54.332;48.386;2022-11-15T07:05:14;98535.41;;;10.38;45.70
38530;BME280;24301;54.332;48.386;2022-11-15T07:07:59;98533.09;;;8.64;46.38
38530;BME280;24301;54.332;48.386;2022-11-15T07:10:43;98538.97;;;8.11;48.44
38530;BME280;24301;54.332;48.386;2022-11-15T07:13:29;98540.22;;;7.74;46.54
38530;BME280;24301;54.332;48.386;2022-11-15T07:16:16;98528.13;;;6.35;45.82
38530;BME280;24301;54.332;48.386;2022-11-15T07:19:00;98530.06;;;5.03;46.07
38530;BME280;24301;54.332;48.386;2022-11-15T07:21:45;98539.53;;;4.50;49.19
38530;BME280;24301;54.332;48.386;2022-11-15T07:24:29;98540.16;;;3.92;42.45
38530;BME280;24301;54.332;48.386;2022-11-15T07:27:13;98549.00;;;2.95;52.92
38530;BME280;24301;54.332;48.386;2022-11-15T07:29:58;98548.09;;;2.14;50.47
38530;BME280;24301;54.332;48.386;2022-11-15T07:32:42;98555.88;;;1.51;53.30
38530;BME280;24301;54.332;48.386;2022-11-15T07:35:27;98551.09;;;0.71;54.17
38530;BME280;24301;54.332;48.386;2022-11-15T07:38:12;98554.66;;;0.32;54.91
38530;BME280;24301;54.332;48.386;2022-11-15T07:40:58;98556.75;;;0.07;54.09
38530;BME280;24301;54.332;48.386;2022-11-15T07:43:43;98564.31;;;-0.03;56.06
38530;BME280;24301;54.332;48.386;2022-11-15T07:46:27;98550.38;;;-0.09;56.47
38530;BME280;24301;54.332;48.386;2022-11-15T07:49:11;98546.34;;;0.04;49.53
38530;BME280;24301;54.332;48.386;2022-11-15T07:51:56;98559.47;;;0.13;57.43
38530;BME280;24301;54.332;48.386;2022-11-15T07:54:40;98562.69;;;0.01;55.73
38530;BME280;24301;54.332;48.386;2022-11-15T07:57:25;98549.19;;;-0.25;54.80
38530;BME280;24301;54.332;48.386;2022-11-15T08:00:09;98565.66;;;-0.20;56.49
38530;BME280;24301;54.332;48.386;2022-11-15T08:03:05;98558.81;;;-0.56;52.17
38530;BME280;24301;54.332;48.386;2022-11-15T08:05:51;98568.63;;;-0.41;57.77
38530;BME280;24301;54.332;48.386;2022-11-15T08:08:38;98567.00;;;-0.38;57.26
38530;BME280;24301;54.332;48.386;2022-11-15T08:11:23;98567.78;;;-0.40;57.58
38530;BME280;24301;54.332;48.386;2022-11-15T08:14:08;98568.03;;;-0.30;58.33
38530;BME280;24301;54.332;48.386;2022-11-15T08:16:53;98567.59;;;-0.48;57.36
38530;BME280;24301;54.332;48.386;2022-11-15T08:19:38;98576.63;;;-0.67;56.62
38530;BME280;24301;54.332;48.386;2022-11-15T08:22:22;98573.66;;;-0.84;58.48
38530;BME280;24301;54.332;48.386;2022-11-15T08:25:07;98575.97;;;-0.95;57.46
38530;BME280;24301;54.332;48.386;2022-11-15T08:27:52;98571.38;;;-1.06;57.97
38530;BME280;24301;54.332;48.386;2022-11-15T08:30:39;98583.56;;;-1.00;58.94
38530;BME280;24301;54.332;48.386;2022-11-15T08:33:26;98590.41;;;-1.02;59.27
38530;BME280;24301;54.332;48.386;2022-11-15T08:36:14;98580.63;;;-1.14;58.56
38530;BME280;24301;54.332;48.386;2022-11-15T08:38:58;98583.06;;;-1.20;59.13
38530;BME280;24301;54.332;48.386;2022-11-15T08:41:43;98584.88;;;-1.16;60.50
38530;BME280;24301;54.332;48.386;2022-11-15T08:44:28;98579.69;;;-1.50;58.44
38530;BME280;24301;54.332;48.386;2022-11-15T08:47:13;98596.53;;;-1.63;58.51
38530;BME280;24301;54.332;48.386;2022-11-15T08:49:57;98596.25;;;-1.41;61.03
38530;BME280;24301;54.332;48.386;2022-11-15T08:52:42;98589.41;;;-1.39;59.72
38530;BME280;24301;54.332;48.386;2022-11-15T08:55:26;98596.25;;;-1.41;61.35
38530;BME280;24301;54.332;48.386;2022-11-15T08:58:10;98591.28;;;-1.35;58.53
38530;BME280;24301;54.332;48.386;2022-11-15T09:00:55;98593.25;;;-1.57;56.69
38530;BME280;24301;54.332;48.386;2022-11-15T09:03:40;98586.41;;;-1.87;55.96
38530;BME280;24301;54.332;48.386;2022-11-15T09:06:25;98597.47;;;-1.90;57.86
38530;BME280;24301;54.332;48.386;2022-11-15T09:09:09;98609.03;;;-1.77;59.16
38530;BME280;24301;54.332;48.386;2022-11-15T09:11:53;98609.16;;;-1.72;60.93
38530;BME280;24301;54.332;48.386;2022-11-15T09:14:37;98609.63;;;-1.55;57.46
38530;BME280;24301;54.332;48.386;2022-11-15T09:17:21;98607.72;;;-1.62;60.70
38530;BME280;24301;54.332;48.386;2022-11-15T09:20:06;98606.44;;;-1.77;52.61
38530;BME280;24301;54.332;48.386;2022-11-15T09:22:52;98622.91;;;-1.71;62.53
38530;BME280;24301;54.332;48.386;2022-11-15T09:25:36;98619.56;;;-1.69;61.27
38530;BME280;24301;54.332;48.386;2022-11-15T09:28:20;98622.88;;;-1.73;61.92
38530;BME280;24301;54.332;48.386;2022-11-15T09:31:05;98623.72;;;-1.74;62.04
38530;BME280;24301;54.332;48.386;2022-11-15T09:33:50;98622.88;;;-1.73;61.74
38530;BME280;24301;54.332;48.386;2022-11-15T09:36:35;98629.72;;;-1.74;62.26
38530;BME280;24301;54.332;48.386;2022-11-15T09:39:19;98627.53;;;-1.61;63.14
38530;BME280;24301;54.332;48.386;2022-11-15T09:42:28;98615.78;;;-1.50;58.26
38530;BME280;24301;54.332;48.386;2022-11-15T09:45:28;98630.09;;;-1.61;61.08
38530;BME280;24301;54.332;48.386;2022-11-15T09:48:29;98634.97;;;-1.70;64.17
38530;BME280;24301;54.332;48.386;2022-11-15T09:51:44;98628.81;;;-1.76;60.77
38530;BME280;24301;54.332;48.386;2022-11-15T09:54:35;98629.81;;;-1.70;59.24
38530;BME280;24301;54.332;48.386;2022-11-15T10:03:31;98640.50;;;-1.58;61.40
38530;BME280;24301;54.332;48.386;2022-11-15T10:05:31;98642.78;;;-1.67;66.34
38530;BME280;24301;54.332;48.386;2022-11-15T10:10:49;98647.84;;;-1.72;67.28
38530;BME280;24301;54.332;48.386;2022-11-15T10:13:24;98649.34;;;-1.79;66.42
38530;BME280;24301;54.332;48.386;2022-11-15T10:15:53;98647.44;;;-1.86;67.19
38530;BME280;24301;54.332;48.386;2022-11-15T10:20:59;98646.03;;;-2.04;66.81
38530;BME280;24301;54.332;48.386;2022-11-15T10:23:27;98650.91;;;-2.13;67.10
38530;BME280;24301;54.332;48.386;2022-11-15T10:25:56;98651.63;;;-2.17;67.09
38530;BME280;24301;54.332;48.386;2022-11-15T10:28:27;98649.03;;;-2.17;67.96
38530;BME280;24301;54.332;48.386;2022-11-15T10:30:58;98655.22;;;-2.12;68.08
38530;BME280;24301;54.332;48.386;2022-11-15T10:33:32;98662.03;;;-2.14;70.01
38530;BME280;24301;54.332;48.386;2022-11-15T10:38:52;98652.66;;;-2.12;68.00
38530;BME280;24301;54.332;48.386;2022-11-15T10:46:36;98659.97;;;-2.26;68.86
38530;BME280;24301;54.332;48.386;2022-11-15T10:49:17;98661.44;;;-2.33;67.61
38530;BME280;24301;54.332;48.386;2022-11-15T10:51:47;98674.53;;;-2.26;70.37
38530;BME280;24301;54.332;48.386;2022-11-15T10:57:15;98663.44;;;-2.24;70.52
38530;BME280;24301;54.332;48.386;2022-11-15T10:59:46;98673.66;;;-2.27;70.23
38530;BME280;24301;54.332;48.386;2022-11-15T11:02:34;98665.69;;;-2.35;68.42
38530;BME280;24301;54.332;48.386;2022-11-15T11:05:02;98677.63;;;-2.37;72.06
38530;BME280;24301;54.332;48.386;2022-11-15T11:07:32;98680.31;;;-2.34;71.17
38530;BME280;24301;54.332;48.386;2022-11-15T11:10:21;98676.06;;;-2.32;72.14
38530;BME280;24301;54.332;48.386;2022-11-15T11:12:45;98678.91;;;-2.24;72.66
38530;BME280;24301;54.332;48.386;2022-11-15T11:15:14;98677.91;;;-2.27;71.93
38530;BME280;24301;54.332;48.386;2022-11-15T11:18:05;98679.31;;;-2.37;68.58
38530;BME280;24301;54.332;48.386;2022-11-15T11:20:53;98673.66;;;-2.53;68.03
38530;BME280;24301;54.332;48.386;2022-11-15T11:23:33;98692.28;;;-2.62;70.12
38530;BME280;24301;54.332;48.386;2022-11-15T11:29:20;98694.13;;;-2.57;70.92
38530;BME280;24301;54.332;48.386;2022-11-15T11:32:34;98684.13;;;-2.48;72.61
38530;BME280;24301;54.332;48.386;2022-11-15T11:48:13;98699.56;;;-2.74;73.84
38530;BME280;24301;54.332;48.386;2022-11-15T11:50:41;98699.47;;;-2.77;74.41
38530;BME280;24301;54.332;48.386;2022-11-15T11:53:22;98705.63;;;-2.72;75.16
38530;BME280;24301;54.332;48.386;2022-11-15T11:55:55;98702.03;;;-2.77;74.63
38530;BME280;24301;54.332;48.386;2022-11-15T11:58:42;98701.03;;;-2.81;74.12
38530;BME280;24301;54.332;48.386;2022-11-15T12:01:34;98703.59;;;-2.82;74.90
38530;BME280;24301;54.332;48.386;2022-11-15T12:04:19;98699.41;;;-2.79;75.04
38530;BME280;24301;54.332;48.386;2022-11-15T12:07:19;98709.00;;;-2.75;75.62
38530;BME280;24301;54.332;48.386;2022-11-15T12:09:57;98703.75;;;-2.78;75.45
38530;BME280;24301;54.332;48.386;2022-11-15T12:12:35;98707.94;;;-2.80;75.20
38530;BME280;24301;54.332;48.386;2022-11-15T12:15:05;98709.44;;;-2.86;75.02
38530;BME280;24301;54.332;48.386;2022-11-15T12:17:38;98709.56;;;-2.83;76.06
38530;BME280;24301;54.332;48.386;2022-11-15T12:20:27;98714.81;;;-2.80;75.21
38530;BME280;24301;54.332;48.386;2022-11-15T12:23:38;98709.75;;;-2.77;74.81
38530;BME280;24301;54.332;48.386;2022-11-15T12:26:09;98718.41;;;-2.75;75.69
38530;BME280;24301;54.332;48.386;2022-11-15T12:31:40;98717.75;;;-2.69;76.02
38530;BME280;24301;54.332;48.386;2022-11-15T12:36:49;98718.59;;;-2.69;75.68
38530;BME280;24301;54.332;48.386;2022-11-15T12:39:16;98722.91;;;-2.69;75.83
38530;BME280;24301;54.332;48.386;2022-11-15T12:41:45;98722.78;;;-2.72;75.37
38530;BME280;24301;54.332;48.386;2022-11-15T12:47:22;98726.53;;;-2.89;73.71
38530;BME280;24301;54.332;48.386;2022-11-15T12:49:49;98727.28;;;-2.91;74.70
38530;BME280;24301;54.332;48.386;2022-11-15T12:52:15;98723.63;;;-2.98;74.12
38530;BME280;24301;54.332;48.386;2022-11-15T13:02:35;98729.41;;;-3.04;73.24
38530;BME280;24301;54.332;48.386;2022-11-15T13:17:45;98721.53;;;-3.08;67.98
38530;BME280;24301;54.332;48.386;2022-11-15T13:22:46;98720.56;;;-3.12;67.82
38530;BME280;24301;54.332;48.386;2022-11-15T13:25:42;98728.09;;;-3.17;67.71
38530;BME280;24301;54.332;48.386;2022-11-15T13:31:02;98720.16;;;-3.23;64.48
38530;BME280;24301;54.332;48.386;2022-11-15T13:33:37;98722.63;;;-3.26;66.30
38530;BME280;24301;54.332;48.386;2022-11-15T13:36:14;98736.53;;;-3.21;65.55
38530;BME280;24301;54.332;48.386;2022-11-15T13:38:41;98732.81;;;-3.29;65.99
38530;BME280;24301;54.332;48.386;2022-11-15T13:43:42;98745.16;;;-3.19;66.35
38530;BME280;24301;54.332;48.386;2022-11-15T13:46:16;98745.34;;;-3.14;65.78
38530;BME280;24301;54.332;48.386;2022-11-15T13:48:44;98741.91;;;-3.14;65.56
38530;BME280;24301;54.332;48.386;2022-11-15T13:56:49;98745.06;;;-3.22;64.58
38530;BME280;24301;54.332;48.386;2022-11-15T13:59:25;98748.44;;;-3.23;64.17
38530;BME280;24301;54.332;48.386;2022-11-15T14:01:52;98750.38;;;-3.17;63.34
38530;BME280;24301;54.332;48.386;2022-11-15T14:04:21;98754.78;;;-3.14;64.54
38530;BME280;24301;54.332;48.386;2022-11-15T14:06:54;98749.72;;;-3.11;64.09
38530;BME280;24301;54.332;48.386;2022-11-15T14:11:57;98750.94;;;-3.01;64.23
38530;BME280;24301;54.332;48.386;2022-11-15T14:14:28;98750.97;;;-3.00;64.17
38530;BME280;24301;54.332;48.386;2022-11-15T14:16:56;98749.31;;;-2.99;64.07
38530;BME280;24301;54.332;48.386;2022-11-15T14:22:20;98751.44;;;-2.87;63.56
38530;BME280;24301;54.332;48.386;2022-11-15T14:25:51;98748.25;;;-2.80;62.77
38530;BME280;24301;54.332;48.386;2022-11-15T14:30:51;98761.22;;;-2.77;63.17
38530;BME280;24301;54.332;48.386;2022-11-15T14:33:32;98757.78;;;-2.78;62.40
38530;BME280;24301;54.332;48.386;2022-11-15T14:36:11;98755.09;;;-2.81;63.16
38530;BME280;24301;54.332;48.386;2022-11-15T14:38:37;98750.88;;;-2.79;63.10
38530;BME280;24301;54.332;48.386;2022-11-15T14:41:03;98764.00;;;-2.71;63.75
38530;BME280;24301;54.332;48.386;2022-11-15T14:43:29;98750.19;;;-2.75;62.83
38530;BME280;24301;54.332;48.386;2022-11-15T14:45:56;98745.50;;;-2.85;62.49
38530;BME280;24301;54.332;48.386;2022-11-15T14:48:21;98749.56;;;-2.92;62.96
38530;BME280;24301;54.332;48.386;2022-11-15T14:50:47;98749.34;;;-2.98;63.22
38530;BME280;24301;54.332;48.386;2022-11-15T14:53:17;98745.44;;;-3.11;63.09
38530;BME280;24301;54.332;48.386;2022-11-15T14:55:43;98757.09;;;-3.21;63.35
38530;BME280;24301;54.332;48.386;2022-11-15T14:58:09;98757.28;;;-3.39;62.47
38530;BME280;24301;54.332;48.386;2022-11-15T15:00:37;98749.56;;;-3.62;63.19
38530;BME280;24301;54.332;48.386;2022-11-15T15:03:05;98763.31;;;-3.61;63.46
38530;BME280;24301;54.332;48.386;2022-11-15T15:05:34;98760.09;;;-3.55;63.61
38530;BME280;24301;54.332;48.386;2022-11-15T15:08:00;98763.72;;;-3.50;63.81
38530;BME280;24301;54.332;48.386;2022-11-15T15:10:34;98759.25;;;-3.54;63.34
38530;BME280;24301;54.332;48.386;2022-11-15T15:13:01;98766.88;;;-3.57;63.38
38530;BME280;24301;54.332;48.386;2022-11-15T15:15:37;98757.34;;;-3.60;63.16
38530;BME280;24301;54.332;48.386;2022-11-15T15:18:05;98761.50;;;-3.64;63.49
38530;BME280;24301;54.332;48.386;2022-11-15T15:20:32;98763.00;;;-3.69;63.66
38530;BME280;24301;54.332;48.386;2022-11-15T15:22:58;98761.06;;;-3.75;63.75
38530;BME280;24301;54.332;48.386;2022-11-15T15:25:28;98765.97;;;-3.81;63.80
38530;BME280;24301;54.332;48.386;2022-11-15T15:27:54;98764.47;;;-3.76;64.30
38530;BME280;24301;54.332;48.386;2022-11-15T15:30:21;98770.75;;;-3.67;64.29
38530;BME280;24301;54.332;48.386;2022-11-15T15:32:48;98773.63;;;-3.59;64.05
38530;BME280;24301;54.332;48.386;2022-11-15T15:35:46;98767.16;;;-3.50;63.97
38530;BME280;24301;54.332;48.386;2022-11-15T15:38:34;98768.09;;;-3.48;64.04
38530;BME280;24301;54.332;48.386;2022-11-15T15:41:17;98767.94;;;-3.52;63.48
38530;BME280;24301;54.332;48.386;2022-11-15T15:44:04;98772.06;;;-3.56;63.60
38530;BME280;24301;54.332;48.386;2022-11-15T15:46:46;98764.84;;;-3.66;63.24
38530;BME280;24301;54.332;48.386;2022-11-15T15:49:22;98768.06;;;-3.70;63.97
38530;BME280;24301;54.332;48.386;2022-11-15T15:51:54;98764.34;;;-3.79;63.72
38530;BME280;24301;54.332;48.386;2022-11-15T15:54:30;98765.28;;;-3.77;64.23
38530;BME280;24301;54.332;48.386;2022-11-15T15:57:34;98768.66;;;-3.78;63.75
38530;BME280;24301;54.332;48.386;2022-11-15T16:00:21;98764.84;;;-3.87;63.24
38530;BME280;24301;54.332;48.386;2022-11-15T16:02:52;98770.22;;;-3.81;64.24
38530;BME280;24301;54.332;48.386;2022-11-15T16:05:18;98770.38;;;-3.78;64.54